Curry Rivel, United Kingdom
Current Conditions -  °F | °C
As of 3:50 PM on Saturday 20 Dec 2014 (Local Time) from EGDY Reporting Station
Broken Clouds Broken Clouds  
Wind Chill: 42°   Ceiling: 4200
Heat Index: 46°   Visibility: 6mi
Dew Point: 39°   Wind: 9mph
Humidity: 76%   Direction: 270°W
Pressure: 30.42"   Gusts: NA
Location:  51.02°N, 2.87°W
Report Text: EGDY 201550Z AUTO 27008KT 9999 BKN042/// 08/04 Q1030
Loading
Personal Weather Stations






























Interactive Weather Map New forecast layout! Learn more

10-Day Weather Forecast

Advertisements
Track Severe Weather on mobile